Time;durP1;ratioP1;P1;durP2;ratioP2;P2;SDS_P1;SDS_P2;PMS_P1;PMS_P2;Temp;Humidity;BMP_temperature;BMP_pressure;BME280_temperature;BME280_humidity;BME280_pressure;Samples;Min_cycle;Max_cycle;Signal;HPM_P1;HPM_P2
2024/02/14 00:01:16;;;;;;;25.75;24.23;;;;;;;;;;5067739;28;20036;-61
2024/02/14 00:03:41;;;;;;;25.35;23.95;;;;;;;;;;5062791;28;20469;-61
2024/02/14 00:06:07;;;;;;;26.75;25.35;;;;;;;;;;5062067;28;21052;-62
2024/02/14 00:08:32;;;;;;;25.52;24.13;;;;;;;;;;5064544;28;20051;-61
2024/02/14 00:10:57;;;;;;;27.40;25.90;;;;;;;;;;5060782;28;20028;-61
2024/02/14 00:13:23;;;;;;;25.88;24.48;;;;;;;;;;5064803;28;20066;-62
2024/02/14 00:15:48;;;;;;;28.52;26.95;;;;;;;;;;5066222;28;20059;-61
2024/02/14 00:18:15;;;;;;;25.88;24.48;;;;;;;;;;5061911;28;20035;-50
2024/02/14 00:20:40;;;;;;;27.27;25.77;;;;;;;;;;5081376;28;20048;-62
2024/02/14 00:23:06;;;;;;;31.10;27.25;;;;;;;;;;5062833;28;20449;-52
2024/02/14 00:25:31;;;;;;;29.13;27.52;;;;;;;;;;5063588;28;20032;-47
2024/02/14 00:27:57;;;;;;;29.95;28.02;;;;;;;;;;5064876;28;20509;-61
2024/02/14 00:30:25;;;;;;;29.10;27.60;;;;;;;;;;5061195;28;20162;-52
2024/02/14 00:32:50;;;;;;;29.70;28.10;;;;;;;;;;5063441;28;20112;-61
2024/02/14 00:35:16;;;;;;;31.20;29.52;;;;;;;;;;5062427;28;20115;-51
2024/02/14 00:37:41;;;;;;;32.53;30.83;;;;;;;;;;5061036;28;20036;-61
2024/02/14 00:40:07;;;;;;;31.15;29.52;;;;;;;;;;5064983;28;20047;-49
2024/02/14 00:42:32;;;;;;;33.40;31.35;;;;;;;;;;5062130;28;20043;-48
2024/02/14 00:44:58;;;;;;;34.30;32.50;;;;;;;;;;5062456;28;20040;-47
2024/02/14 00:47:23;;;;;;;32.03;30.23;;;;;;;;;;5061133;28;20447;-48
2024/02/14 00:49:48;;;;;;;33.85;31.90;;;;;;;;;;5060514;28;20506;-61
2024/02/14 00:52:14;;;;;;;32.28;30.58;;;;;;;;;;5061801;28;20036;-62
2024/02/14 00:54:39;;;;;;;32.97;31.27;;;;;;;;;;5061400;28;20670;-61
2024/02/14 00:57:05;;;;;;;34.65;32.65;;;;;;;;;;5064466;28;20466;-61
2024/02/14 00:59:30;;;;;;;32.55;30.85;;;;;;;;;;5063797;28;20037;-62
2024/02/14 01:01:55;;;;;;;33.00;31.20;;;;;;;;;;5059488;28;20056;-61
2024/02/14 01:04:21;;;;;;;32.05;30.35;;;;;;;;;;5063553;28;20032;-50
2024/02/14 01:06:48;;;;;;;33.25;31.52;;;;;;;;;;5062954;28;20652;-61
2024/02/14 01:09:13;;;;;;;34.72;32.40;;;;;;;;;;5061739;28;20051;-61
2024/02/14 01:11:38;;;;;;;37.83;35.92;;;;;;;;;;5059192;28;20372;-49
2024/02/14 01:14:04;;;;;;;34.45;32.65;;;;;;;;;;5064879;28;20024;-49
2024/02/14 01:16:29;;;;;;;32.53;30.83;;;;;;;;;;5062210;28;20047;-51
2024/02/14 01:18:55;;;;;;;34.58;32.78;;;;;;;;;;5061308;28;20060;-49
2024/02/14 01:21:20;;;;;;;34.47;32.67;;;;;;;;;;5064226;28;20071;-49
2024/02/14 01:23:45;;;;;;;33.33;31.63;;;;;;;;;;5061306;28;20028;-50
2024/02/14 01:26:11;;;;;;;34.70;32.58;;;;;;;;;;5061598;28;20492;-49
2024/02/14 01:28:36;;;;;;;34.13;32.25;;;;;;;;;;5062157;28;20347;-61
2024/02/14 01:31:01;;;;;;;35.55;33.58;;;;;;;;;;5062181;28;20117;-61
2024/02/14 01:33:28;;;;;;;34.20;32.42;;;;;;;;;;5062876;28;20024;-61
2024/02/14 01:35:53;;;;;;;33.75;31.95;;;;;;;;;;5060685;28;20032;-61
2024/02/14 01:38:19;;;;;;;34.33;32.50;;;;;;;;;;5058302;28;20040;-46
2024/02/14 01:40:44;;;;;;;31.48;29.77;;;;;;;;;;5061103;28;20043;-46
2024/02/14 01:43:10;;;;;;;30.83;29.13;;;;;;;;;;5060479;28;20356;-45
2024/02/14 01:45:37;;;;;;;31.70;30.00;;;;;;;;;;5063141;28;20020;-47
2024/02/14 01:48:06;;;;;;;31.00;29.25;;;;;;;;;;5058890;28;20098;-48
2024/02/14 01:50:31;;;;;;;34.00;31.13;;;;;;;;;;5061796;28;20470;-61
2024/02/14 01:52:59;;;;;;;35.53;33.63;;;;;;;;;;5062979;28;20039;-49
2024/02/14 01:55:26;;;;;;;33.10;31.10;;;;;;;;;;5059949;28;20085;-46
2024/02/14 01:57:53;;;;;;;35.83;33.92;;;;;;;;;;5061603;28;20039;-61
2024/02/14 02:00:19;;;;;;;33.40;31.63;;;;;;;;;;5059074;28;20036;-48
2024/02/14 02:02:46;;;;;;;36.40;34.50;;;;;;;;;;5060201;28;20147;-48
2024/02/14 02:05:12;;;;;;;33.45;31.70;;;;;;;;;;5064391;28;20070;-61
2024/02/14 02:07:42;;;;;;;33.45;31.65;;;;;;;;;;5064410;28;20061;-61
2024/02/14 02:10:10;;;;;;;32.35;30.65;;;;;;;;;;5062504;28;20031;-61
2024/02/14 02:12:38;;;;;;;34.17;32.38;;;;;;;;;;5063652;28;20098;-52
2024/02/14 02:15:06;;;;;;;30.63;29.00;;;;;;;;;;5057440;28;20086;-49
2024/02/14 02:17:34;;;;;;;32.45;30.75;;;;;;;;;;5059583;28;20305;-50
2024/02/14 02:20:00;;;;;;;32.45;30.75;;;;;;;;;;5057092;28;20062;-51
2024/02/14 02:22:25;;;;;;;34.77;32.87;;;;;;;;;;5063405;28;20032;-62
2024/02/14 02:24:50;;;;;;;32.95;31.15;;;;;;;;;;5057988;28;20396;-52
2024/02/14 02:27:16;;;;;;;30.02;28.45;;;;;;;;;;5061779;28;20031;-50
2024/02/14 02:29:42;;;;;;;31.73;29.85;;;;;;;;;;5060011;28;20083;-62
2024/02/14 02:32:09;;;;;;;33.38;31.60;;;;;;;;;;5064125;28;20031;-62
2024/02/14 02:34:36;;;;;;;34.20;32.40;;;;;;;;;;5059571;28;20124;-62
2024/02/14 02:37:01;;;;;;;34.08;32.28;;;;;;;;;;5062807;28;20028;-62
2024/02/14 02:39:27;;;;;;;34.70;32.90;;;;;;;;;;5065552;28;20055;-62
2024/02/14 02:41:55;;;;;;;31.42;29.83;;;;;;;;;;5060897;28;20029;-62
2024/02/14 02:44:20;;;;;;;35.38;33.30;;;;;;;;;;5061713;28;20021;-62
2024/02/14 02:46:46;;;;;;;32.05;30.30;;;;;;;;;;5062459;28;20025;-62
2024/02/14 02:49:13;;;;;;;31.80;30.10;;;;;;;;;;5061546;28;20024;-62
2024/02/14 02:51:39;;;;;;;31.27;29.60;;;;;;;;;;5065767;28;20434;-62
2024/02/14 02:54:04;;;;;;;31.17;29.30;;;;;;;;;;5069225;28;20024;-62
2024/02/14 02:56:29;;;;;;;34.17;32.17;;;;;;;;;;5064298;28;20068;-62
2024/02/14 02:58:58;;;;;;;32.22;30.50;;;;;;;;;;5065283;28;20567;-62
2024/02/14 03:01:24;;;;;;;32.65;30.92;;;;;;;;;;5062824;28;20090;-62
2024/02/14 03:03:50;;;;;;;34.75;32.95;;;;;;;;;;5063873;28;20126;-62
2024/02/14 03:06:15;;;;;;;32.67;30.98;;;;;;;;;;5062231;28;20033;-63
2024/02/14 03:08:41;;;;;;;31.25;29.65;;;;;;;;;;5066227;28;20031;-63
2024/02/14 03:11:07;;;;;;;30.92;29.33;;;;;;;;;;5059340;28;20450;-63
2024/02/14 03:13:32;;;;;;;32.83;31.13;;;;;;;;;;5069971;28;20036;-62
2024/02/14 03:15:58;;;;;;;33.65;31.85;;;;;;;;;;5062679;28;20036;-50
2024/02/14 03:18:24;;;;;;;32.45;30.65;;;;;;;;;;5065206;28;20390;-49
2024/02/14 03:20:55;;;;;;;31.33;29.65;;;;;;;;;;5068383;28;20037;-62
2024/02/14 03:23:22;;;;;;;31.05;29.45;;;;;;;;;;5064723;28;20036;-62
2024/02/14 03:25:48;;;;;;;32.45;30.75;;;;;;;;;;5063023;28;20053;-62
2024/02/14 03:28:14;;;;;;;34.33;32.38;;;;;;;;;;5061956;28;20451;-49
2024/02/14 03:30:39;;;;;;;30.52;28.73;;;;;;;;;;5065601;28;20570;-48
2024/02/14 03:33:07;;;;;;;29.15;27.60;;;;;;;;;;5063068;28;20401;-48
2024/02/14 03:35:33;;;;;;;32.67;30.98;;;;;;;;;;5067814;28;20068;-48
2024/02/14 03:38:00;;;;;;;32.75;31.02;;;;;;;;;;5061516;28;20084;-47
2024/02/14 03:40:26;;;;;;;32.22;30.52;;;;;;;;;;5065059;28;20139;-48
2024/02/14 03:42:53;;;;;;;32.25;30.55;;;;;;;;;;5062485;28;20116;-47
2024/02/14 03:45:18;;;;;;;32.65;30.75;;;;;;;;;;5061685;28;20053;-49
2024/02/14 03:47:44;;;;;;;31.90;30.10;;;;;;;;;;5063270;28;20999;-47
2024/02/14 03:50:09;;;;;;;29.40;27.80;;;;;;;;;;5065270;28;20052;-51
2024/02/14 03:52:35;;;;;;;31.40;29.80;;;;;;;;;;5067147;28;20043;-47
2024/02/14 03:55:01;;;;;;;32.53;30.77;;;;;;;;;;5062897;28;20045;-50
2024/02/14 03:57:28;;;;;;;32.35;30.55;;;;;;;;;;5063803;28;20087;-47
2024/02/14 03:59:54;;;;;;;31.58;29.88;;;;;;;;;;5059514;28;20517;-48
2024/02/14 04:02:20;;;;;;;32.17;30.48;;;;;;;;;;5056909;28;20115;-47
2024/02/14 04:04:46;;;;;;;32.38;30.67;;;;;;;;;;5061348;28;20107;-49
2024/02/14 04:07:12;;;;;;;32.28;30.58;;;;;;;;;;5064517;28;20407;-51
2024/02/14 04:09:37;;;;;;;31.75;30.10;;;;;;;;;;5063615;28;20040;-49
2024/02/14 04:12:03;;;;;;;32.03;30.33;;;;;;;;;;5063468;28;20032;-49
2024/02/14 04:14:28;;;;;;;33.15;31.45;;;;;;;;;;5065378;28;20638;-50
2024/02/14 04:16:54;;;;;;;33.55;31.80;;;;;;;;;;5059791;28;20446;-50
2024/02/14 04:19:19;;;;;;;35.17;33.38;;;;;;;;;;5064237;28;20110;-52
2024/02/14 04:21:45;;;;;;;34.83;33.03;;;;;;;;;;5063223;28;20028;-48
2024/02/14 04:24:11;;;;;;;31.35;29.70;;;;;;;;;;5063894;28;20035;-49
2024/02/14 04:26:36;;;;;;;33.15;31.35;;;;;;;;;;5063723;28;20025;-50
2024/02/14 04:29:02;;;;;;;34.90;32.67;;;;;;;;;;5063031;28;20113;-50
2024/02/14 04:31:29;;;;;;;32.35;30.65;;;;;;;;;;5060110;28;20622;-50
2024/02/14 04:33:55;;;;;;;32.55;30.85;;;;;;;;;;5063057;28;20033;-50
2024/02/14 04:36:22;;;;;;;33.50;31.80;;;;;;;;;;5062353;28;20417;-51
2024/02/14 04:38:48;;;;;;;32.25;30.55;;;;;;;;;;5065212;28;20079;-51
2024/02/14 04:41:14;;;;;;;33.50;31.75;;;;;;;;;;5064056;28;20028;-48
2024/02/14 04:43:40;;;;;;;35.08;33.28;;;;;;;;;;5064991;28;20060;-48
2024/02/14 04:46:06;;;;;;;33.90;32.10;;;;;;;;;;5062556;28;20043;-48
2024/02/14 04:48:33;;;;;;;34.95;33.15;;;;;;;;;;5066629;28;20029;-49
2024/02/14 04:50:58;;;;;;;33.70;31.90;;;;;;;;;;5063891;28;20044;-48
2024/02/14 04:53:23;;;;;;;35.17;33.35;;;;;;;;;;5063387;28;20033;-50
2024/02/14 04:55:49;;;;;;;33.33;31.55;;;;;;;;;;5061178;28;20036;-47
2024/02/14 04:58:14;;;;;;;33.95;32.15;;;;;;;;;;5061649;28;20158;-48
2024/02/14 05:00:39;;;;;;;33.45;31.65;;;;;;;;;;5058915;28;20119;-53
2024/02/14 05:03:05;;;;;;;33.17;31.48;;;;;;;;;;5063724;28;20085;-48
2024/02/14 05:05:30;;;;;;;30.88;29.17;;;;;;;;;;5063821;28;20047;-50
2024/02/14 05:07:56;;;;;;;33.42;31.63;;;;;;;;;;5060029;28;20155;-48
2024/02/14 05:10:21;;;;;;;33.53;31.15;;;;;;;;;;5060870;28;20043;-50
2024/02/14 05:12:47;;;;;;;31.63;29.70;;;;;;;;;;5058671;28;20034;-45
2024/02/14 05:15:12;;;;;;;32.92;30.95;;;;;;;;;;5063239;28;20036;-46
2024/02/14 05:17:38;;;;;;;33.60;31.80;;;;;;;;;;5061038;28;20403;-46
2024/02/14 05:20:08;;;;;;;37.50;34.78;;;;;;;;;;5061422;28;20037;-52
2024/02/14 05:22:38;;;;;;;34.22;32.42;;;;;;;;;;5060732;28;20171;-48
2024/02/14 05:25:04;;;;;;;35.15;33.33;;;;;;;;;;5059700;28;20381;-46
2024/02/14 05:27:30;;;;;;;33.95;32.15;;;;;;;;;;5062690;28;20029;-49
2024/02/14 05:29:56;;;;;;;36.90;34.83;;;;;;;;;;5059273;28;20489;-46
2024/02/14 05:32:22;;;;;;;34.60;32.78;;;;;;;;;;5063965;28;20035;-48
2024/02/14 05:34:47;;;;;;;35.55;33.58;;;;;;;;;;5050558;28;20092;-53
2024/02/14 05:37:13;;;;;;;35.17;33.22;;;;;;;;;;5063231;28;20551;-47
2024/02/14 05:39:39;;;;;;;38.03;35.95;;;;;;;;;;5059271;28;20039;-48
2024/02/14 05:42:05;;;;;;;36.10;34.10;;;;;;;;;;5059021;28;20032;-49
2024/02/14 05:44:31;;;;;;;34.70;32.90;;;;;;;;;;5064791;28;20032;-53
2024/02/14 05:46:56;;;;;;;33.30;31.58;;;;;;;;;;5061138;28;20579;-51
2024/02/14 05:49:22;;;;;;;34.38;32.58;;;;;;;;;;5062826;28;20117;-49
2024/02/14 05:51:47;;;;;;;33.22;31.50;;;;;;;;;;5063352;28;20032;-52
2024/02/14 05:54:13;;;;;;;33.72;31.95;;;;;;;;;;5058692;28;20017;-52
2024/02/14 05:56:38;;;;;;;32.03;30.33;;;;;;;;;;5061659;28;20077;-46
2024/02/14 05:59:04;;;;;;;35.28;33.47;;;;;;;;;;5064999;28;20024;-50
2024/02/14 06:01:29;;;;;;;35.53;33.63;;;;;;;;;;5057132;28;20044;-52
2024/02/14 06:03:55;;;;;;;33.53;31.70;;;;;;;;;;5060606;28;20093;-47
2024/02/14 06:06:20;;;;;;;36.08;34.08;;;;;;;;;;5063095;28;20107;-51
2024/02/14 06:08:46;;;;;;;33.90;32.15;;;;;;;;;;5066699;28;20099;-51
2024/02/14 06:11:14;;;;;;;34.75;32.85;;;;;;;;;;5059549;28;20021;-51
2024/02/14 06:13:39;;;;;;;35.00;33.20;;;;;;;;;;5062685;28;20126;-48
2024/02/14 06:16:05;;;;;;;34.72;32.92;;;;;;;;;;5062241;28;20627;-48
2024/02/14 06:18:30;;;;;;;36.95;35.05;;;;;;;;;;5060528;28;20131;-47
2024/02/14 06:20:56;;;;;;;34.90;33.00;;;;;;;;;;5059659;28;20040;-48
2024/02/14 06:23:21;;;;;;;35.25;33.45;;;;;;;;;;5062164;28;20062;-50
2024/02/14 06:25:46;;;;;;;34.40;32.45;;;;;;;;;;5062331;28;20029;-49
2024/02/14 06:28:11;;;;;;;33.80;31.80;;;;;;;;;;5061773;28;20029;-48
2024/02/14 06:30:37;;;;;;;31.60;29.90;;;;;;;;;;5061108;28;20093;-51
2024/02/14 06:33:02;;;;;;;30.13;28.52;;;;;;;;;;5062736;28;20036;-51
2024/02/14 06:35:28;;;;;;;29.40;27.80;;;;;;;;;;5063716;28;20028;-51
2024/02/14 06:37:54;;;;;;;27.95;26.45;;;;;;;;;;5060383;28;20025;-49
2024/02/14 06:40:20;;;;;;;27.23;25.63;;;;;;;;;;5058316;28;20048;-50
2024/02/14 06:42:45;;;;;;;28.27;26.77;;;;;;;;;;5061035;28;20029;-48
2024/02/14 06:45:10;;;;;;;26.85;25.25;;;;;;;;;;5064527;28;20033;-50
2024/02/14 06:47:36;;;;;;;29.45;27.80;;;;;;;;;;5064523;28;20509;-50
2024/02/14 06:50:01;;;;;;;26.73;25.33;;;;;;;;;;5064477;28;20036;-45
2024/02/14 06:52:26;;;;;;;25.50;24.10;;;;;;;;;;5062357;28;20473;-45
2024/02/14 06:54:52;;;;;;;29.73;28.00;;;;;;;;;;5060744;28;20090;-46
2024/02/14 06:57:17;;;;;;;29.23;27.63;;;;;;;;;;5058638;28;24166;-59
2024/02/14 06:59:43;;;;;;;27.50;26.00;;;;;;;;;;5063546;28;20106;-59
2024/02/14 07:02:08;;;;;;;27.83;26.33;;;;;;;;;;5063541;28;20036;-60
2024/02/14 07:04:34;;;;;;;29.27;27.58;;;;;;;;;;5061119;28;20076;-59
2024/02/14 07:07:00;;;;;;;28.30;26.70;;;;;;;;;;5061297;28;20563;-60
2024/02/14 07:09:25;;;;;;;28.50;27.00;;;;;;;;;;5057924;28;20108;-60
2024/02/14 07:11:53;;;;;;;30.15;28.23;;;;;;;;;;5059662;28;20040;-60
2024/02/14 07:14:19;;;;;;;28.10;26.58;;;;;;;;;;5060452;28;20036;-60
2024/02/14 07:16:44;;;;;;;28.50;26.88;;;;;;;;;;5059196;28;20259;-60
2024/02/14 07:19:09;;;;;;;28.17;26.67;;;;;;;;;;5061510;28;20059;-60
2024/02/14 07:21:37;;;;;;;29.05;27.45;;;;;;;;;;5057564;28;20060;-60
2024/02/14 07:24:03;;;;;;;28.05;26.55;;;;;;;;;;5059711;28;20059;-60
2024/02/14 07:26:29;;;;;;;27.30;25.85;;;;;;;;;;5060321;28;20041;-60
2024/02/14 07:28:54;;;;;;;27.35;25.85;;;;;;;;;;5062821;28;20055;-60
2024/02/14 07:31:19;;;;;;;25.55;24.05;;;;;;;;;;5053575;28;20329;-60
2024/02/14 07:33:46;;;;;;;29.10;27.60;;;;;;;;;;5061971;28;20158;-60
2024/02/14 07:36:11;;;;;;;29.77;28.17;;;;;;;;;;5059069;28;20457;-60
2024/02/14 07:38:37;;;;;;;28.80;27.30;;;;;;;;;;5066561;28;20036;-60
2024/02/14 07:41:02;;;;;;;31.10;29.40;;;;;;;;;;5065302;28;20086;-60
2024/02/14 07:43:27;;;;;;;30.75;29.15;;;;;;;;;;5063332;28;20025;-60
2024/02/14 07:45:53;;;;;;;32.42;30.73;;;;;;;;;;5048883;28;20025;-60
2024/02/14 07:48:18;;;;;;;36.03;33.53;;;;;;;;;;5063991;28;20039;-60
2024/02/14 07:50:44;;;;;;;34.85;32.80;;;;;;;;;;5068753;28;20109;-60
2024/02/14 07:53:09;;;;;;;30.10;28.50;;;;;;;;;;5064640;28;20274;-61
2024/02/14 07:55:34;;;;;;;30.42;28.83;;;;;;;;;;5068111;28;20037;-62
2024/02/14 07:58:00;;;;;;;30.70;29.10;;;;;;;;;;5063739;28;20037;-61
2024/02/14 08:00:25;;;;;;;31.00;29.40;;;;;;;;;;5059649;28;20056;-61
2024/02/14 08:02:51;;;;;;;32.90;31.13;;;;;;;;;;5065365;28;20036;-60
2024/02/14 08:05:17;;;;;;;29.38;27.77;;;;;;;;;;5066383;28;20035;-60
2024/02/14 08:07:42;;;;;;;34.40;32.60;;;;;;;;;;5067975;28;20044;-60
2024/02/14 08:10:08;;;;;;;32.25;30.48;;;;;;;;;;5060581;28;20469;-60
2024/02/14 08:12:34;;;;;;;32.30;30.60;;;;;;;;;;5064623;28;20036;-60
2024/02/14 08:15:04;;;;;;;35.63;33.70;;;;;;;;;;5061313;28;20033;-60
2024/02/14 08:17:29;;;;;;;34.50;32.30;;;;;;;;;;5066234;28;20228;-60
2024/02/14 08:19:54;;;;;;;34.83;32.92;;;;;;;;;;5064440;28;20061;-60
2024/02/14 08:22:20;;;;;;;34.63;32.83;;;;;;;;;;5061225;28;20077;-61
2024/02/14 08:24:46;;;;;;;37.72;35.28;;;;;;;;;;5065543;28;20088;-60
2024/02/14 08:27:11;;;;;;;35.85;33.85;;;;;;;;;;5064515;28;20457;-60
2024/02/14 08:29:36;;;;;;;35.22;33.17;;;;;;;;;;5064810;28;20252;-61
2024/02/14 08:32:03;;;;;;;34.70;32.90;;;;;;;;;;5064129;28;20040;-62
2024/02/14 08:34:29;;;;;;;35.78;33.47;;;;;;;;;;5060475;28;20340;-61
2024/02/14 08:36:54;;;;;;;38.28;36.28;;;;;;;;;;5062116;28;20481;-60
2024/02/14 08:39:19;;;;;;;34.45;32.65;;;;;;;;;;5061861;28;20036;-60
2024/02/14 08:41:46;;;;;;;33.63;31.85;;;;;;;;;;5067054;28;20127;-60
2024/02/14 08:44:12;;;;;;;34.65;32.78;;;;;;;;;;5063179;28;20042;-60
2024/02/14 08:46:39;;;;;;;34.70;32.80;;;;;;;;;;5066143;28;20041;-61
2024/02/14 08:49:08;;;;;;;35.63;33.63;;;;;;;;;;5065729;28;20040;-61
2024/02/14 08:51:37;;;;;;;34.53;32.53;;;;;;;;;;5062554;28;20453;-61
2024/02/14 08:54:06;;;;;;;37.15;35.25;;;;;;;;;;5063710;28;20028;-61
2024/02/14 08:56:35;;;;;;;36.33;34.03;;;;;;;;;;5062836;28;20028;-61
2024/02/14 08:59:02;;;;;;;38.15;36.17;;;;;;;;;;5063781;28;20040;-61
2024/02/14 09:01:30;;;;;;;36.70;34.80;;;;;;;;;;5059991;28;20043;-61
2024/02/14 09:03:56;;;;;;;36.03;34.13;;;;;;;;;;5063473;28;20037;-60
2024/02/14 09:06:21;;;;;;;37.70;35.75;;;;;;;;;;5060527;28;20120;-61
2024/02/14 09:08:47;;;;;;;36.00;34.17;;;;;;;;;;5062806;28;20050;-61
2024/02/14 09:11:13;;;;;;;37.50;35.05;;;;;;;;;;5062689;28;20087;-61
2024/02/14 09:13:41;;;;;;;37.90;35.90;;;;;;;;;;5061621;28;20410;-61
2024/02/14 09:16:08;;;;;;;37.75;35.75;;;;;;;;;;5064560;28;20498;-60
2024/02/14 09:18:33;;;;;;;38.45;36.42;;;;;;;;;;5061297;28;20033;-61
2024/02/14 09:20:58;;;;;;;37.70;35.33;;;;;;;;;;5061377;28;20036;-61
2024/02/14 09:23:24;;;;;;;35.38;33.58;;;;;;;;;;5059284;28;20044;-61
2024/02/14 09:25:49;;;;;;;36.50;34.50;;;;;;;;;;5061679;28;20032;-61
2024/02/14 09:28:18;;;;;;;36.10;33.90;;;;;;;;;;5059224;28;20422;-61
2024/02/14 09:30:44;;;;;;;34.55;32.75;;;;;;;;;;5061224;28;20036;-60
2024/02/14 09:33:09;;;;;;;35.47;33.58;;;;;;;;;;5063840;28;20036;-60
2024/02/14 09:35:37;;;;;;;33.92;32.15;;;;;;;;;;5061496;28;20208;-60
2024/02/14 09:38:03;;;;;;;34.08;32.25;;;;;;;;;;5062738;28;20060;-61
2024/02/14 09:40:28;;;;;;;32.92;31.23;;;;;;;;;;5059626;28;20128;-61
2024/02/14 09:42:57;;;;;;;36.30;34.40;;;;;;;;;;5065646;28;20079;-61
2024/02/14 09:45:25;;;;;;;32.20;30.30;;;;;;;;;;5059882;28;20584;-61
2024/02/14 09:47:52;;;;;;;33.75;31.98;;;;;;;;;;5063886;28;20485;-61
2024/02/14 09:50:18;;;;;;;31.42;29.80;;;;;;;;;;5064294;28;20024;-61
2024/02/14 09:52:48;;;;;;;33.95;32.20;;;;;;;;;;5062828;28;20044;-61
2024/02/14 09:55:14;;;;;;;34.90;33.00;;;;;;;;;;5061694;28;20029;-60
2024/02/14 09:57:41;;;;;;;31.88;30.23;;;;;;;;;;5062260;28;20482;-61
2024/02/14 10:00:09;;;;;;;37.28;35.28;;;;;;;;;;5059646;28;20038;-61
2024/02/14 10:02:35;;;;;;;39.55;37.47;;;;;;;;;;5062753;28;20458;-61
2024/02/14 10:05:00;;;;;;;39.42;37.25;;;;;;;;;;5063784;28;20377;-61
2024/02/14 10:07:26;;;;;;;35.25;33.35;;;;;;;;;;5062432;28;20028;-60
2024/02/14 10:09:51;;;;;;;38.40;36.40;;;;;;;;;;5063530;28;20422;-61
2024/02/14 10:12:17;;;;;;;39.88;37.20;;;;;;;;;;5063917;28;20301;-61
2024/02/14 10:14:43;;;;;;;41.00;38.85;;;;;;;;;;5062270;28;20745;-61
2024/02/14 10:17:09;;;;;;;42.63;40.42;;;;;;;;;;5065346;28;20038;-60
2024/02/14 10:19:35;;;;;;;40.58;38.47;;;;;;;;;;5060391;28;20167;-60
2024/02/14 10:22:05;;;;;;;40.35;38.25;;;;;;;;;;5064992;28;20548;-60
2024/02/14 10:24:30;;;;;;;42.70;40.47;;;;;;;;;;5059948;28;20032;-60
2024/02/14 10:26:59;;;;;;;44.05;41.80;;;;;;;;;;5062737;28;20177;-60
2024/02/14 10:29:24;;;;;;;42.40;40.25;;;;;;;;;;5065227;28;20021;-60
2024/02/14 10:31:50;;;;;;;44.45;42.17;;;;;;;;;;5061509;28;20413;-60
2024/02/14 10:34:16;;;;;;;41.50;39.08;;;;;;;;;;5061252;28;20038;-60
2024/02/14 10:36:43;;;;;;;41.40;39.30;;;;;;;;;;5061307;28;20063;-60
2024/02/14 10:39:10;;;;;;;39.88;37.60;;;;;;;;;;5061393;28;20039;-60
2024/02/14 10:41:36;;;;;;;38.72;36.72;;;;;;;;;;5061739;28;20359;-60
2024/02/14 10:44:04;;;;;;;38.58;36.58;;;;;;;;;;5066134;28;20035;-60
2024/02/14 10:46:32;;;;;;;41.22;39.00;;;;;;;;;;5061067;28;20394;-60
2024/02/14 10:49:04;;;;;;;40.83;38.72;;;;;;;;;;5062008;28;20047;-60
2024/02/14 10:51:33;;;;;;;37.97;35.97;;;;;;;;;;5060555;28;20028;-60
2024/02/14 10:53:59;;;;;;;36.38;34.47;;;;;;;;;;5063501;28;20382;-60
2024/02/14 10:56:28;;;;;;;36.60;34.70;;;;;;;;;;5061831;28;20682;-60
2024/02/14 10:58:57;;;;;;;37.17;35.28;;;;;;;;;;5061399;28;20520;-60
2024/02/14 11:01:24;;;;;;;41.20;39.10;;;;;;;;;;5064339;28;20039;-60
2024/02/14 11:03:50;;;;;;;34.15;32.15;;;;;;;;;;5063533;28;20394;-61
2024/02/14 11:06:19;;;;;;;38.88;36.88;;;;;;;;;;5061346;28;20099;-60
2024/02/14 11:09:10;;;;;;;37.88;35.88;;;;;;;;;;5062861;28;20025;-60
2024/02/14 11:11:36;;;;;;;37.47;35.47;;;;;;;;;;5063551;28;20031;-61
2024/02/14 11:14:03;;;;;;;35.40;33.58;;;;;;;;;;5064878;28;20098;-60
2024/02/14 11:16:32;;;;;;;36.97;35.08;;;;;;;;;;5064155;28;20377;-60
2024/02/14 11:19:11;;;;;;;36.80;34.78;;;;;;;;;;5066291;28;20033;-59
2024/02/14 11:21:42;;;;;;;36.95;35.03;;;;;;;;;;5065930;28;20116;-60
2024/02/14 11:24:10;;;;;;;33.15;31.45;;;;;;;;;;5066258;28;20027;-59
2024/02/14 11:26:39;;;;;;;33.88;32.13;;;;;;;;;;5064676;28;20530;-59
2024/02/14 11:29:05;;;;;;;37.17;35.28;;;;;;;;;;5067850;28;20546;-59
2024/02/14 11:31:35;;;;;;;38.90;36.78;;;;;;;;;;5065316;28;20028;-59
2024/02/14 11:34:05;;;;;;;38.03;36.03;;;;;;;;;;5064753;28;20029;-59
2024/02/14 11:36:33;;;;;;;39.08;37.08;;;;;;;;;;5065451;28;20040;-59
2024/02/14 11:38:58;;;;;;;32.90;31.20;;;;;;;;;;5063775;28;20539;-59
2024/02/14 11:41:23;;;;;;;34.47;32.67;;;;;;;;;;5066370;28;20037;-60
2024/02/14 11:43:52;;;;;;;39.10;37.10;;;;;;;;;;5065389;28;20036;-60
2024/02/14 11:46:17;;;;;;;33.88;32.15;;;;;;;;;;5066761;28;20055;-60
2024/02/14 11:48:45;;;;;;;35.90;33.92;;;;;;;;;;5066335;28;20060;-60
2024/02/14 11:51:11;;;;;;;36.47;34.58;;;;;;;;;;5065322;28;20024;-60
2024/02/14 11:53:37;;;;;;;34.63;32.83;;;;;;;;;;5064370;28;20678;-60
2024/02/14 11:56:02;;;;;;;35.60;33.45;;;;;;;;;;5065446;28;20351;-60
2024/02/14 11:58:28;;;;;;;36.60;34.60;;;;;;;;;;5065386;28;20029;-60
2024/02/14 12:00:53;;;;;;;47.03;44.08;;;;;;;;;;5061265;28;20049;-60
2024/02/14 12:03:21;;;;;;;42.70;40.50;;;;;;;;;;5064278;28;20072;-60
2024/02/14 12:05:50;;;;;;;42.17;39.88;;;;;;;;;;5066720;28;20123;-60
2024/02/14 12:08:16;;;;;;;45.38;42.78;;;;;;;;;;5062473;28;20670;-60
2024/02/14 12:10:47;;;;;;;50.75;48.13;;;;;;;;;;5063510;28;20048;-60
2024/02/14 12:13:14;;;;;;;46.75;44.35;;;;;;;;;;5066051;28;20105;-60
2024/02/14 12:15:40;;;;;;;42.60;40.42;;;;;;;;;;5064610;28;20059;-59
2024/02/14 12:18:07;;;;;;;41.08;38.97;;;;;;;;;;5064869;28;20118;-60
2024/02/14 12:20:33;;;;;;;43.55;41.30;;;;;;;;;;5067026;28;20025;-60
2024/02/14 12:23:00;;;;;;;36.92;34.78;;;;;;;;;;5062374;28;20472;-60
2024/02/14 12:25:26;;;;;;;36.38;34.28;;;;;;;;;;5063501;28;20043;-60
2024/02/14 12:27:51;;;;;;;32.95;31.25;;;;;;;;;;5067087;28;20366;-60
2024/02/14 12:30:17;;;;;;;29.88;28.27;;;;;;;;;;5068237;28;20056;-60
2024/02/14 12:32:43;;;;;;;32.38;30.67;;;;;;;;;;5065377;28;20042;-60
2024/02/14 12:35:09;;;;;;;33.33;31.63;;;;;;;;;;5064128;28;20040;-60
2024/02/14 12:37:34;;;;;;;34.28;32.45;;;;;;;;;;5064394;28;20413;-60
2024/02/14 12:39:59;;;;;;;34.20;32.38;;;;;;;;;;5063195;28;20136;-60
2024/02/14 12:42:27;;;;;;;33.72;31.92;;;;;;;;;;5061410;28;20120;-60
2024/02/14 12:44:54;;;;;;;32.85;31.15;;;;;;;;;;5065859;28;20036;-60
2024/02/14 12:47:21;;;;;;;30.55;28.95;;;;;;;;;;5065468;28;20040;-60
2024/02/14 12:49:48;;;;;;;29.80;28.20;;;;;;;;;;5063467;28;20376;-60
2024/02/14 12:52:13;;;;;;;30.25;28.65;;;;;;;;;;5068990;28;20040;-60
2024/02/14 12:54:39;;;;;;;29.55;28.00;;;;;;;;;;5062076;28;20032;-60
2024/02/14 12:57:05;;;;;;;31.40;29.67;;;;;;;;;;5063172;28;20041;-60
2024/02/14 12:59:31;;;;;;;30.00;28.42;;;;;;;;;;5063193;28;20032;-60
2024/02/14 13:01:56;;;;;;;35.08;33.28;;;;;;;;;;5066355;28;20033;-60
2024/02/14 13:04:22;;;;;;;30.63;29.02;;;;;;;;;;5062192;28;20501;-60
2024/02/14 13:06:47;;;;;;;31.45;29.83;;;;;;;;;;5068248;28;20561;-60
2024/02/14 13:09:14;;;;;;;30.58;28.98;;;;;;;;;;5064111;28;20538;-60
2024/02/14 13:11:41;;;;;;;29.98;28.38;;;;;;;;;;5062466;28;20055;-60
2024/02/14 13:14:06;;;;;;;32.42;29.38;;;;;;;;;;5063713;28;20024;-60
2024/02/14 13:16:31;;;;;;;33.22;31.52;;;;;;;;;;5063181;28;20033;-60
2024/02/14 13:18:57;;;;;;;30.55;28.95;;;;;;;;;;5063019;28;20086;-60
2024/02/14 13:21:22;;;;;;;31.98;30.27;;;;;;;;;;5063406;28;20545;-60
2024/02/14 13:23:48;;;;;;;30.58;28.98;;;;;;;;;;5069780;28;20113;-60
2024/02/14 13:26:13;;;;;;;30.90;29.30;;;;;;;;;;5061880;28;20028;-59
2024/02/14 13:28:40;;;;;;;32.67;30.88;;;;;;;;;;5064530;28;20114;-59
2024/02/14 13:31:06;;;;;;;29.52;27.92;;;;;;;;;;5063406;28;20025;-60
2024/02/14 13:33:31;;;;;;;31.80;30.15;;;;;;;;;;5065754;28;20370;-60
2024/02/14 13:35:56;;;;;;;40.50;38.40;;;;;;;;;;5063213;28;20437;-61
2024/02/14 13:38:22;;;;;;;38.53;36.47;;;;;;;;;;5058441;28;20166;-62
2024/02/14 13:40:48;;;;;;;40.17;38.10;;;;;;;;;;5063141;28;20072;-61
2024/02/14 13:43:16;;;;;;;38.50;36.53;;;;;;;;;;5062115;28;20037;-62
2024/02/14 13:45:43;;;;;;;37.15;35.25;;;;;;;;;;5061844;28;20459;-61
2024/02/14 13:48:10;;;;;;;45.65;43.20;;;;;;;;;;5063937;28;20557;-62
2024/02/14 13:50:35;;;;;;;46.78;44.35;;;;;;;;;;5065366;28;20039;-62
2024/02/14 13:53:01;;;;;;;47.85;45.35;;;;;;;;;;5063760;28;20036;-61
2024/02/14 13:55:26;;;;;;;45.67;43.35;;;;;;;;;;5064296;28;20062;-61
2024/02/14 13:57:51;;;;;;;45.40;43.00;;;;;;;;;;5064972;28;20611;-62
2024/02/14 14:00:17;;;;;;;47.08;44.58;;;;;;;;;;5062761;28;20446;-61
2024/02/14 14:02:43;;;;;;;49.97;47.47;;;;;;;;;;5065215;28;20108;-61
2024/02/14 14:05:09;;;;;;;50.83;48.22;;;;;;;;;;5060232;28;20029;-61
2024/02/14 14:07:36;;;;;;;48.03;45.60;;;;;;;;;;5058302;28;20027;-62
2024/02/14 14:10:03;;;;;;;51.55;48.88;;;;;;;;;;5058298;28;20036;-62